createdAt,value
2023-01-18T00:01:06.952Z,11.80
2023-01-18T00:03:35.679Z,11.48
2023-01-18T00:06:03.938Z,11.93
2023-01-18T00:08:32.398Z,11.63
2023-01-18T00:11:10.989Z,12.20
2023-01-18T00:13:38.615Z,10.40
2023-01-18T00:16:12.965Z,9.93
2023-01-18T00:18:40.556Z,10.88
2023-01-18T00:21:09.959Z,10.48
2023-01-18T00:23:37.540Z,10.38
2023-01-18T00:26:07.205Z,11.38
2023-01-18T00:28:34.822Z,10.35
2023-01-18T00:31:02.136Z,10.48
2023-01-18T00:33:30.574Z,10.60
2023-01-18T00:35:59.434Z,11.83
2023-01-18T00:38:26.976Z,11.75
2023-01-18T00:40:54.267Z,12.05
2023-01-18T00:43:39.683Z,10.90
2023-01-18T00:46:08.748Z,10.40
2023-01-18T00:48:36.739Z,10.20
2023-01-18T00:51:04.079Z,11.52
2023-01-18T00:53:31.452Z,10.68
2023-01-18T00:55:59.059Z,10.63
2023-01-18T00:58:26.318Z,10.68
2023-01-18T01:00:53.757Z,11.13
2023-01-18T01:03:21.684Z,10.52
2023-01-18T01:06:08.084Z,9.70
2023-01-18T01:08:35.336Z,10.80
2023-01-18T01:11:11.177Z,9.65
2023-01-18T01:13:57.506Z,10.30
2023-01-18T01:16:43.739Z,10.02
2023-01-18T01:19:29.449Z,9.45
2023-01-18T01:22:15.119Z,10.10
2023-01-18T01:25:00.855Z,9.82
2023-01-18T01:27:28.147Z,10.35
2023-01-18T01:29:55.362Z,9.68
2023-01-18T01:32:22.601Z,10.10
2023-01-18T01:34:49.843Z,9.40
2023-01-18T01:37:17.119Z,9.88
2023-01-18T01:39:44.541Z,9.75
2023-01-18T01:42:12.498Z,10.05
2023-01-18T01:44:51.331Z,9.77
2023-01-18T01:47:28.651Z,10.05
2023-01-18T01:50:00.845Z,10.10
2023-01-18T01:52:39.310Z,8.98
2023-01-18T01:55:18.732Z,9.10
2023-01-18T01:57:57.482Z,9.07
2023-01-18T02:00:24.927Z,8.85
2023-01-18T02:02:58.560Z,8.88
2023-01-18T02:05:26.851Z,9.60
2023-01-18T02:07:55.092Z,8.85
2023-01-18T02:10:22.268Z,9.18
2023-01-18T02:12:50.110Z,8.80
2023-01-18T02:15:19.926Z,8.25
2023-01-18T02:18:18.213Z,8.30
2023-01-18T02:21:15.481Z,8.63
2023-01-18T02:24:14.865Z,7.63
2023-01-18T02:26:53.929Z,7.50
2023-01-18T02:29:44.405Z,6.95
2023-01-18T02:32:46.345Z,7.38
2023-01-18T02:35:21.002Z,6.88
2023-01-18T02:38:19.663Z,8.25
2023-01-18T02:41:06.777Z,7.28
2023-01-18T02:43:53.026Z,7.75
2023-01-18T02:46:35.987Z,7.90
2023-01-18T02:49:08.568Z,7.57
2023-01-18T02:51:36.003Z,7.38
2023-01-18T02:54:05.244Z,7.25
2023-01-18T02:56:51.468Z,6.82
2023-01-18T02:59:27.792Z,6.95
2023-01-18T03:02:10.002Z,6.75
2023-01-18T03:04:41.965Z,6.80
2023-01-18T03:07:17.183Z,6.90
2023-01-18T03:09:45.223Z,6.22
2023-01-18T03:12:46.761Z,6.60
2023-01-18T03:15:22.103Z,6.18
2023-01-18T03:17:54.968Z,6.78
2023-01-18T03:20:25.938Z,6.95
2023-01-18T03:23:31.995Z,7.15
2023-01-18T03:26:00.580Z,8.48
2023-01-18T03:29:05.428Z,7.75
2023-01-18T03:32:04.977Z,7.57
2023-01-18T03:34:52.326Z,6.95
2023-01-18T03:37:33.959Z,7.85
2023-01-18T03:40:10.924Z,7.60
2023-01-18T03:42:51.367Z,7.43
2023-01-18T03:45:40.201Z,7.25
2023-01-18T03:48:08.679Z,6.75
2023-01-18T03:51:02.724Z,6.67
2023-01-18T03:53:39.232Z,6.80
2023-01-18T03:56:14.044Z,6.72
2023-01-18T03:58:42.389Z,6.20
2023-01-18T04:01:10.416Z,6.77
2023-01-18T04:03:38.124Z,7.10
2023-01-18T04:06:06.653Z,7.68
2023-01-18T04:08:33.892Z,7.55
2023-01-18T04:11:01.109Z,7.70
2023-01-18T04:13:28.365Z,7.30
2023-01-18T04:15:55.768Z,7.20
2023-01-18T04:18:23.066Z,7.65
2023-01-18T04:20:50.467Z,7.50
2023-01-18T04:23:17.716Z,7.65
2023-01-18T04:25:50.148Z,7.57
2023-01-18T04:28:25.322Z,7.03
2023-01-18T04:30:53.902Z,7.13
2023-01-18T04:33:21.735Z,7.53
2023-01-18T04:35:49.869Z,7.07
2023-01-18T04:38:17.485Z,7.95
2023-01-18T04:40:44.916Z,6.63
2023-01-18T04:43:12.231Z,6.82
2023-01-18T04:45:39.595Z,7.35
2023-01-18T04:48:07.051Z,7.53
2023-01-18T04:50:34.375Z,6.47
2023-01-18T04:53:01.845Z,7.60
2023-01-18T04:55:29.313Z,7.10
2023-01-18T04:57:57.450Z,7.13
2023-01-18T05:00:25.029Z,7.13
2023-01-18T05:02:52.404Z,7.80
2023-01-18T05:05:19.601Z,7.38
2023-01-18T05:07:46.859Z,7.70
2023-01-18T05:10:14.311Z,6.82
2023-01-18T05:12:41.615Z,7.28
2023-01-18T05:15:09.668Z,7.95
2023-01-18T05:17:37.133Z,7.28
2023-01-18T05:20:06.983Z,7.47
2023-01-18T05:22:34.817Z,8.00
2023-01-18T05:25:02.095Z,7.97
2023-01-18T05:27:29.348Z,7.30
2023-01-18T05:29:56.594Z,7.45
2023-01-18T05:32:23.898Z,6.80
2023-01-18T05:34:51.167Z,7.82
2023-01-18T05:37:18.399Z,7.90
2023-01-18T05:39:45.624Z,7.63
2023-01-18T05:42:13.109Z,8.05
2023-01-18T05:44:40.913Z,9.15
2023-01-18T05:47:08.133Z,8.52
2023-01-18T05:49:35.370Z,11.57
2023-01-18T05:52:02.659Z,13.73
2023-01-18T05:54:29.931Z,12.45
2023-01-18T05:56:58.339Z,11.32
2023-01-18T05:59:25.623Z,10.47
2023-01-18T06:01:52.969Z,10.38
2023-01-18T06:04:20.272Z,10.05
2023-01-18T06:06:47.516Z,9.82
2023-01-18T06:09:14.757Z,10.65
2023-01-18T06:11:42.021Z,9.43
2023-01-18T06:14:09.323Z,9.30
2023-01-18T06:16:36.765Z,9.85
2023-01-18T06:19:04.280Z,10.00
2023-01-18T06:21:31.492Z,31.98
2023-01-18T06:23:58.703Z,39.20
2023-01-18T06:26:25.975Z,80.90
2023-01-18T06:28:53.542Z,41.38
2023-01-18T06:31:20.873Z,18.90
2023-01-18T06:33:48.532Z,10.18
2023-01-18T06:36:15.821Z,10.13
2023-01-18T06:38:43.226Z,10.02
2023-01-18T06:41:11.484Z,9.32
2023-01-18T06:43:38.883Z,11.00
2023-01-18T06:46:08.460Z,10.48
2023-01-18T06:48:36.374Z,8.52
2023-01-18T06:51:04.147Z,8.93
2023-01-18T06:53:31.324Z,7.68
2023-01-18T06:56:00.182Z,7.70
2023-01-18T06:58:28.516Z,7.63
2023-01-18T07:00:59.981Z,8.25
2023-01-18T07:03:28.001Z,7.28
2023-01-18T07:05:56.125Z,7.78
2023-01-18T07:08:24.319Z,7.40
2023-01-18T07:10:54.429Z,8.07
2023-01-18T07:13:22.934Z,8.07
2023-01-18T07:15:56.609Z,7.80
2023-01-18T07:18:24.402Z,7.22
2023-01-18T07:21:09.193Z,8.50
2023-01-18T07:23:37.835Z,8.25
2023-01-18T07:26:16.704Z,8.50
2023-01-18T07:28:47.947Z,7.07
2023-01-18T07:31:15.852Z,7.80
2023-01-18T07:33:43.184Z,7.03
2023-01-18T07:36:10.873Z,6.00
2023-01-18T07:38:39.290Z,6.05
2023-01-18T07:41:09.381Z,5.55
2023-01-18T07:43:37.650Z,5.75
2023-01-18T07:46:07.149Z,5.95
2023-01-18T07:48:35.210Z,5.47
2023-01-18T07:51:06.325Z,5.53
2023-01-18T07:53:35.113Z,4.93
2023-01-18T07:56:04.046Z,4.75
2023-01-18T07:58:31.365Z,4.78
2023-01-18T08:01:12.686Z,4.60
2023-01-18T08:03:41.816Z,6.53
2023-01-18T08:06:09.547Z,6.45
2023-01-18T08:08:37.531Z,5.85
2023-01-18T08:11:06.452Z,5.63
2023-01-18T08:13:33.857Z,5.97
2023-01-18T08:16:02.794Z,5.50
2023-01-18T08:18:30.330Z,6.00
2023-01-18T08:20:57.884Z,6.20
2023-01-18T08:23:25.269Z,4.93
2023-01-18T08:25:52.579Z,5.50
2023-01-18T08:28:20.093Z,5.57
2023-01-18T08:30:48.400Z,5.50
2023-01-18T08:33:15.747Z,5.10
2023-01-18T08:35:47.721Z,5.13
2023-01-18T08:38:16.547Z,4.55
2023-01-18T08:40:43.857Z,5.72
2023-01-18T08:43:11.857Z,6.68
2023-01-18T08:45:39.282Z,6.78
2023-01-18T08:48:08.129Z,8.65
2023-01-18T08:50:36.295Z,10.13
2023-01-18T08:53:04.323Z,9.82
2023-01-18T08:55:34.004Z,7.25
2023-01-18T08:58:01.276Z,6.45
2023-01-18T09:00:29.034Z,6.25
2023-01-18T09:02:56.563Z,5.53
2023-01-18T09:05:25.788Z,6.53
2023-01-18T09:07:54.128Z,6.07
2023-01-18T09:10:22.252Z,6.30
2023-01-18T09:12:52.860Z,6.72
2023-01-18T09:15:20.879Z,6.10
2023-01-18T09:17:48.172Z,5.45
2023-01-18T09:20:18.576Z,4.97
2023-01-18T09:22:47.984Z,5.80
2023-01-18T09:27:43.331Z,4.05
2023-01-18T09:30:10.953Z,4.28
2023-01-18T09:32:38.187Z,4.60
2023-01-18T09:35:06.102Z,4.50
2023-01-18T09:37:33.660Z,5.68
2023-01-18T09:40:01.126Z,5.60
2023-01-18T09:42:36.262Z,6.20
2023-01-18T09:45:04.804Z,7.20
2023-01-18T09:47:40.239Z,7.82
2023-01-18T09:50:18.842Z,7.72
2023-01-18T09:53:25.660Z,7.82
2023-01-18T09:55:59.082Z,6.88
2023-01-18T09:58:38.105Z,7.00
2023-01-18T10:01:26.903Z,7.90
2023-01-18T10:03:56.754Z,7.75
2023-01-18T10:06:31.104Z,8.15
2023-01-18T10:09:05.503Z,6.93
2023-01-18T10:11:36.775Z,7.95
2023-01-18T10:14:22.176Z,8.18
2023-01-18T10:16:58.678Z,7.45
2023-01-18T10:19:28.590Z,7.78
2023-01-18T10:22:14.321Z,8.00
2023-01-18T10:24:45.453Z,7.38
2023-01-18T10:27:22.819Z,8.02
2023-01-18T10:29:56.244Z,6.68
2023-01-18T10:32:24.781Z,6.97
2023-01-18T10:34:52.698Z,6.90
2023-01-18T10:37:42.668Z,7.00
2023-01-18T10:40:12.666Z,6.53
2023-01-18T10:42:49.565Z,7.35
2023-01-18T10:45:22.513Z,6.63
2023-01-18T10:47:52.076Z,6.07
2023-01-18T10:52:47.897Z,5.88
2023-01-18T10:55:19.738Z,5.78
2023-01-18T10:57:49.917Z,5.28
2023-01-18T11:00:27.835Z,6.82
2023-01-18T11:02:55.757Z,5.88
2023-01-18T11:05:37.547Z,5.45
2023-01-18T11:08:11.943Z,5.13
2023-01-18T11:10:40.211Z,4.90
2023-01-18T11:13:27.284Z,4.80
2023-01-18T11:16:12.790Z,4.97
2023-01-18T11:19:03.788Z,5.15
2023-01-18T11:21:44.573Z,4.57
2023-01-18T11:24:22.100Z,4.30
2023-01-18T11:26:57.604Z,4.90
2023-01-18T11:29:34.733Z,5.03
2023-01-18T11:32:09.588Z,17.20
2023-01-18T11:34:39.018Z,13.43
2023-01-18T11:42:31.511Z,6.05
2023-01-18T11:45:16.047Z,5.18
2023-01-18T11:47:55.532Z,5.80
2023-01-18T11:50:37.410Z,5.75
2023-01-18T11:53:16.652Z,6.20
2023-01-18T11:55:56.336Z,6.97
2023-01-18T11:58:28.302Z,6.45
2023-01-18T12:01:02.738Z,6.50
2023-01-18T12:03:59.996Z,6.40
2023-01-18T12:06:54.485Z,6.32
2023-01-18T12:09:35.710Z,5.03
2023-01-18T12:12:18.372Z,5.82
2023-01-18T12:14:53.263Z,5.30
2023-01-18T12:17:45.996Z,5.40
2023-01-18T12:20:33.199Z,6.03
2023-01-18T12:23:42.414Z,5.80
2023-01-18T12:29:24.332Z,4.65
2023-01-18T12:32:01.255Z,5.50
2023-01-18T12:34:40.713Z,4.63
2023-01-18T12:37:26.419Z,5.22
2023-01-18T12:40:32.741Z,5.13
2023-01-18T12:43:15.309Z,4.88
2023-01-18T12:45:48.949Z,5.68
2023-01-18T12:48:30.158Z,5.18
2023-01-18T12:51:00.586Z,5.65
2023-01-18T12:53:57.647Z,5.00
2023-01-18T12:56:33.141Z,5.35
2023-01-18T12:59:05.480Z,5.05
2023-01-18T13:01:40.961Z,6.13
2023-01-18T13:04:32.970Z,6.03
2023-01-18T13:07:07.736Z,6.50
2023-01-18T13:09:44.314Z,6.30
2023-01-18T13:12:18.489Z,6.25
2023-01-18T13:15:36.489Z,6.18
2023-01-18T13:18:10.258Z,6.95
2023-01-18T13:20:46.289Z,7.30
2023-01-18T13:23:25.058Z,6.30
2023-01-18T13:26:04.474Z,6.25
2023-01-18T13:28:32.036Z,7.00
2023-01-18T13:31:05.606Z,6.45
2023-01-18T13:33:37.805Z,6.60
2023-01-18T13:36:17.329Z,6.82
2023-01-18T13:39:01.091Z,6.97
2023-01-18T13:41:30.227Z,6.57
2023-01-18T13:44:03.979Z,7.25
2023-01-18T13:46:35.287Z,7.13
2023-01-18T13:49:36.715Z,6.68
2023-01-18T13:52:35.705Z,7.38
2023-01-18T13:55:24.100Z,6.80
2023-01-18T13:57:55.478Z,7.07
2023-01-18T14:00:24.630Z,7.43
2023-01-18T14:03:14.543Z,8.32
2023-01-18T14:05:46.725Z,12.13
2023-01-18T14:08:29.194Z,10.02
2023-01-18T14:11:04.591Z,8.68
2023-01-18T14:13:48.213Z,7.22
2023-01-18T14:16:26.938Z,9.07
2023-01-18T14:19:17.597Z,8.40
2023-01-18T14:22:09.959Z,7.30
2023-01-18T14:25:03.024Z,7.65
2023-01-18T14:27:33.947Z,6.90
2023-01-18T14:30:13.147Z,6.32
2023-01-18T14:32:44.783Z,8.30
2023-01-18T14:35:25.677Z,8.70
2023-01-18T14:38:16.856Z,9.20
2023-01-18T14:40:50.385Z,8.75
2023-01-18T14:43:34.035Z,9.05
2023-01-18T14:46:07.877Z,7.43
2023-01-18T14:48:41.356Z,7.22
2023-01-18T14:51:08.764Z,7.18
2023-01-18T14:53:43.605Z,7.78
2023-01-18T14:56:16.729Z,9.02
2023-01-18T14:58:59.081Z,8.93
2023-01-18T15:01:36.320Z,9.55
2023-01-18T15:04:25.794Z,11.60
2023-01-18T15:09:28.005Z,7.97
2023-01-18T15:11:58.103Z,7.53
2023-01-18T15:14:34.059Z,7.15
2023-01-18T15:17:02.105Z,7.45
2023-01-18T15:19:34.722Z,8.73
2023-01-18T15:22:05.885Z,8.45
2023-01-18T15:24:41.860Z,8.45
2023-01-18T15:27:15.148Z,7.65
2023-01-18T15:29:48.577Z,9.98
2023-01-18T15:32:22.105Z,8.20
2023-01-18T15:34:50.757Z,7.60
2023-01-18T15:37:30.343Z,8.70
2023-01-18T15:40:00.292Z,9.20
2023-01-18T15:42:36.923Z,9.38
2023-01-18T15:45:04.535Z,17.65
2023-01-18T15:47:39.080Z,18.67
2023-01-18T15:50:19.485Z,13.65
2023-01-18T15:53:05.927Z,9.52
2023-01-18T15:55:35.846Z,9.10
2023-01-18T15:58:06.806Z,9.93
2023-01-18T16:00:43.350Z,9.75
2023-01-18T16:03:26.586Z,8.38
2023-01-18T16:06:04.647Z,9.55
2023-01-18T16:08:32.430Z,9.02
2023-01-18T16:10:59.759Z,10.00
2023-01-18T16:13:34.224Z,9.15
2023-01-18T16:16:22.700Z,7.93
2023-01-18T16:19:03.906Z,8.57
2023-01-18T16:21:42.740Z,9.82
2023-01-18T16:24:47.024Z,8.70
2023-01-18T16:27:19.519Z,9.18
2023-01-18T16:29:58.696Z,9.35
2023-01-18T16:32:27.992Z,9.15
2023-01-18T16:37:23.297Z,9.50
2023-01-18T16:39:50.557Z,10.15
2023-01-18T16:42:21.723Z,10.23
2023-01-18T16:44:51.272Z,10.15
2023-01-18T16:47:19.077Z,9.80
2023-01-18T16:49:47.711Z,10.40
2023-01-18T16:52:15.459Z,9.43
2023-01-18T16:54:44.077Z,11.20
2023-01-18T16:57:20.690Z,11.15
2023-01-18T16:59:48.559Z,11.00
2023-01-18T17:02:16.035Z,11.05
2023-01-18T17:04:45.468Z,12.30
2023-01-18T17:09:48.482Z,11.95
2023-01-18T17:12:16.262Z,12.18
2023-01-18T17:14:43.487Z,11.45
2023-01-18T17:17:11.354Z,11.82
2023-01-18T17:19:41.446Z,11.15
2023-01-18T17:22:08.716Z,13.20
2023-01-18T17:24:36.279Z,11.70
2023-01-18T17:27:03.944Z,11.85
2023-01-18T17:29:31.192Z,12.52
2023-01-18T17:31:58.610Z,12.77
2023-01-18T17:34:28.667Z,12.30
2023-01-18T17:36:58.541Z,11.68
2023-01-18T17:39:42.667Z,12.25
2023-01-18T17:42:22.887Z,10.98
2023-01-18T17:45:03.334Z,12.07
2023-01-18T17:47:31.474Z,12.07
2023-01-18T17:49:58.846Z,12.88
2023-01-18T17:52:28.002Z,12.52
2023-01-18T17:54:56.654Z,13.68
2023-01-18T17:57:23.993Z,12.98
2023-01-18T17:59:55.602Z,13.93
2023-01-18T18:02:26.579Z,14.25
2023-01-18T18:04:53.943Z,13.30
2023-01-18T18:07:21.113Z,14.05
2023-01-18T18:09:48.397Z,13.77
2023-01-18T18:12:15.720Z,13.60
2023-01-18T18:14:42.956Z,15.27
2023-01-18T18:17:10.223Z,14.18
2023-01-18T18:19:38.569Z,13.68
2023-01-18T18:22:06.355Z,14.60
2023-01-18T18:24:33.560Z,15.30
2023-01-18T18:27:02.174Z,14.57
2023-01-18T18:31:57.530Z,14.95
2023-01-18T18:34:24.748Z,15.60
2023-01-18T18:36:51.963Z,14.77
2023-01-18T18:39:19.227Z,15.23
2023-01-18T18:41:48.166Z,28.42
2023-01-18T18:44:15.635Z,23.55
2023-01-18T18:46:43.148Z,17.38
2023-01-18T18:49:20.826Z,18.30
2023-01-18T18:51:48.148Z,18.00
2023-01-18T18:54:15.612Z,17.73
2023-01-18T18:56:43.248Z,16.92
2023-01-18T18:59:10.721Z,16.05
2023-01-18T19:01:41.256Z,14.93
2023-01-18T19:04:09.636Z,15.45
2023-01-18T19:06:38.227Z,13.85
2023-01-18T19:09:05.761Z,15.23
2023-01-18T19:11:33.345Z,16.10
2023-01-18T19:14:01.122Z,15.73
2023-01-18T19:16:28.645Z,15.73
2023-01-18T19:19:04.891Z,19.65
2023-01-18T19:21:32.726Z,17.48
2023-01-18T19:24:00.241Z,18.13
2023-01-18T19:26:27.536Z,21.73
2023-01-18T19:28:54.954Z,22.98
2023-01-18T19:31:22.253Z,22.25
2023-01-18T19:33:49.498Z,20.35
2023-01-18T19:36:16.843Z,18.80
2023-01-18T19:38:46.705Z,23.83
2023-01-18T19:41:17.377Z,20.75
2023-01-18T19:43:49.226Z,17.48
2023-01-18T19:46:20.167Z,18.65
2023-01-18T19:48:47.481Z,19.40
2023-01-18T19:51:22.394Z,19.38
2023-01-18T19:53:52.380Z,20.02
2023-01-18T19:56:20.226Z,20.02
2023-01-18T19:58:47.689Z,19.88
2023-01-18T20:01:26.707Z,18.90
2023-01-18T20:04:01.675Z,17.48
2023-01-18T20:06:28.913Z,18.38
2023-01-18T20:08:56.162Z,19.77
2023-01-18T20:11:23.853Z,17.25
2023-01-18T20:13:51.546Z,18.88
2023-01-18T20:16:20.470Z,18.33
2023-01-18T20:18:48.809Z,19.15
2023-01-18T20:21:17.324Z,18.65
2023-01-18T20:23:45.790Z,17.98
2023-01-18T20:26:17.947Z,19.40
2023-01-18T20:28:49.386Z,18.52
2023-01-18T20:31:16.656Z,19.70
2023-01-18T20:33:47.203Z,17.70
2023-01-18T20:36:15.719Z,18.58
2023-01-18T20:38:42.940Z,18.83
2023-01-18T20:41:10.878Z,17.95
2023-01-18T20:43:38.290Z,16.40
2023-01-18T20:46:14.847Z,18.45
2023-01-18T20:48:42.078Z,17.60
2023-01-18T20:51:09.272Z,19.52
2023-01-18T20:53:38.035Z,17.67
2023-01-18T20:56:12.002Z,19.20
2023-01-18T20:58:51.075Z,18.02
2023-01-18T21:01:19.186Z,18.95
2023-01-18T21:03:51.610Z,18.63
2023-01-18T21:06:18.873Z,18.45
2023-01-18T21:08:46.130Z,18.17
2023-01-18T21:11:14.667Z,18.70
2023-01-18T21:13:41.930Z,18.75
2023-01-18T21:16:09.218Z,18.00
2023-01-18T21:18:37.613Z,18.30
2023-01-18T21:21:04.847Z,20.07
2023-01-18T21:23:39.374Z,18.85
2023-01-18T21:26:09.089Z,18.50
2023-01-18T21:28:36.698Z,18.83
2023-01-18T21:31:04.446Z,17.30
2023-01-18T21:33:31.959Z,18.45
2023-01-18T21:36:07.117Z,20.58
2023-01-18T21:38:34.634Z,19.48
2023-01-18T21:41:21.861Z,20.45
2023-01-18T21:44:11.381Z,20.10
2023-01-18T21:46:38.821Z,19.83
2023-01-18T21:49:06.815Z,20.45
2023-01-18T21:51:53.030Z,20.33
2023-01-18T21:54:22.155Z,18.25
2023-01-18T21:56:50.960Z,18.65
2023-01-18T21:59:18.313Z,19.25
2023-01-18T22:01:47.115Z,18.33
2023-01-18T22:04:34.132Z,17.92
2023-01-18T22:07:04.810Z,18.25
2023-01-18T22:09:33.024Z,19.27
2023-01-18T22:12:00.483Z,16.65
2023-01-18T22:14:27.835Z,16.80
2023-01-18T22:16:55.197Z,16.60
2023-01-18T22:19:22.642Z,16.40
2023-01-18T22:21:50.208Z,15.48
2023-01-18T22:24:18.088Z,16.30
2023-01-18T22:26:45.813Z,15.20
2023-01-18T22:29:13.623Z,15.05
2023-01-18T22:31:41.151Z,16.10
2023-01-18T22:34:08.925Z,16.05
2023-01-18T22:36:36.154Z,17.73
2023-01-18T22:39:03.528Z,16.52
2023-01-18T22:41:30.911Z,18.88
2023-01-18T22:43:58.157Z,16.42
2023-01-18T22:46:25.540Z,17.98
2023-01-18T22:48:52.956Z,16.52
2023-01-18T22:51:22.350Z,16.00
2023-01-18T22:56:19.607Z,15.23
2023-01-18T22:58:47.433Z,17.73
2023-01-18T23:01:25.126Z,16.80
2023-01-18T23:03:54.927Z,16.67
2023-01-18T23:06:22.560Z,15.55
2023-01-18T23:08:50.141Z,15.93
2023-01-18T23:11:19.846Z,17.20
2023-01-18T23:14:09.464Z,17.02
2023-01-18T23:16:56.035Z,17.10
2023-01-18T23:19:25.372Z,16.75
2023-01-18T23:24:21.873Z,16.73
2023-01-18T23:26:50.481Z,20.38
2023-01-18T23:29:18.094Z,30.05
2023-01-18T23:31:45.562Z,37.47
2023-01-18T23:34:12.828Z,41.22
2023-01-18T23:36:40.324Z,37.72
2023-01-18T23:39:26.216Z,41.70
2023-01-18T23:42:12.045Z,42.20
2023-01-18T23:44:57.894Z,32.50
2023-01-18T23:47:43.499Z,27.02
2023-01-18T23:50:29.817Z,24.42
2023-01-18T23:53:18.290Z,21.65
2023-01-18T23:55:45.592Z,21.30
2023-01-18T23:58:12.983Z,20.25
